sensor_id;sensor_type;location;lat;lon;timestamp;P1;durP1;ratioP1;P2;durP2;ratioP2
60653;SDS011;46476;53.614;10.048;2022-09-12T00:01:57;1.75;;;1.52;;
60653;SDS011;46476;53.614;10.048;2022-09-12T00:04:22;2.50;;;1.42;;
60653;SDS011;46476;53.614;10.048;2022-09-12T00:06:48;2.05;;;1.13;;
60653;SDS011;46476;53.614;10.048;2022-09-12T00:09:14;2.00;;;1.40;;
60653;SDS011;46476;53.614;10.048;2022-09-12T00:11:41;2.20;;;1.42;;
60653;SDS011;46476;53.614;10.048;2022-09-12T00:14:09;1.70;;;1.50;;
60653;SDS011;46476;53.614;10.048;2022-09-12T00:16:36;4.25;;;1.70;;
60653;SDS011;46476;53.614;10.048;2022-09-12T00:19:03;2.00;;;1.60;;
60653;SDS011;46476;53.614;10.048;2022-09-12T00:21:30;2.20;;;1.40;;
60653;SDS011;46476;53.614;10.048;2022-09-12T00:23:57;3.47;;;1.42;;
60653;SDS011;46476;53.614;10.048;2022-09-12T00:26:22;3.05;;;1.95;;
60653;SDS011;46476;53.614;10.048;2022-09-12T00:28:48;1.63;;;1.50;;
60653;SDS011;46476;53.614;10.048;2022-09-12T00:31:18;4.13;;;1.60;;
60653;SDS011;46476;53.614;10.048;2022-09-12T00:33:47;1.73;;;1.35;;
60653;SDS011;46476;53.614;10.048;2022-09-12T00:36:18;1.27;;;1.17;;
60653;SDS011;46476;53.614;10.048;2022-09-12T00:38:45;2.05;;;1.30;;
60653;SDS011;46476;53.614;10.048;2022-09-12T00:41:16;1.35;;;1.25;;
60653;SDS011;46476;53.614;10.048;2022-09-12T00:43:47;2.10;;;1.90;;
60653;SDS011;46476;53.614;10.048;2022-09-12T00:49:10;1.80;;;1.50;;
60653;SDS011;46476;53.614;10.048;2022-09-12T00:51:47;3.15;;;1.70;;
60653;SDS011;46476;53.614;10.048;2022-09-12T00:54:27;2.10;;;1.70;;
60653;SDS011;46476;53.614;10.048;2022-09-12T00:56:57;2.05;;;1.85;;
60653;SDS011;46476;53.614;10.048;2022-09-12T00:59:34;2.38;;;1.70;;
60653;SDS011;46476;53.614;10.048;2022-09-12T01:02:08;2.85;;;1.90;;
60653;SDS011;46476;53.614;10.048;2022-09-12T01:04:35;2.60;;;1.70;;
60653;SDS011;46476;53.614;10.048;2022-09-12T01:07:10;2.63;;;1.60;;
60653;SDS011;46476;53.614;10.048;2022-09-12T01:09:43;1.70;;;1.60;;
60653;SDS011;46476;53.614;10.048;2022-09-12T01:12:57;2.75;;;2.10;;
60653;SDS011;46476;53.614;10.048;2022-09-12T01:15:57;2.13;;;1.67;;
60653;SDS011;46476;53.614;10.048;2022-09-12T01:21:19;2.08;;;1.80;;
60653;SDS011;46476;53.614;10.048;2022-09-12T01:24:11;1.95;;;1.83;;
60653;SDS011;46476;53.614;10.048;2022-09-12T01:32:10;2.08;;;1.88;;
60653;SDS011;46476;53.614;10.048;2022-09-12T01:34:48;2.13;;;1.90;;
60653;SDS011;46476;53.614;10.048;2022-09-12T01:37:26;2.22;;;1.70;;
60653;SDS011;46476;53.614;10.048;2022-09-12T01:40:02;2.28;;;1.98;;
60653;SDS011;46476;53.614;10.048;2022-09-12T01:42:52;2.50;;;1.60;;
60653;SDS011;46476;53.614;10.048;2022-09-12T01:45:43;2.58;;;2.00;;
60653;SDS011;46476;53.614;10.048;2022-09-12T01:51:15;2.97;;;2.00;;
60653;SDS011;46476;53.614;10.048;2022-09-12T01:53:47;2.10;;;1.80;;
60653;SDS011;46476;53.614;10.048;2022-09-12T01:56:23;2.85;;;1.77;;
60653;SDS011;46476;53.614;10.048;2022-09-12T01:58:53;2.22;;;1.90;;
60653;SDS011;46476;53.614;10.048;2022-09-12T02:01:24;3.63;;;2.15;;
60653;SDS011;46476;53.614;10.048;2022-09-12T02:06:36;2.30;;;2.00;;
60653;SDS011;46476;53.614;10.048;2022-09-12T02:09:11;4.00;;;2.38;;
60653;SDS011;46476;53.614;10.048;2022-09-12T02:11:45;2.50;;;1.95;;
60653;SDS011;46476;53.614;10.048;2022-09-12T02:14:18;2.50;;;2.10;;
60653;SDS011;46476;53.614;10.048;2022-09-12T02:16:49;3.15;;;2.05;;
60653;SDS011;46476;53.614;10.048;2022-09-12T02:19:19;2.85;;;1.92;;
60653;SDS011;46476;53.614;10.048;2022-09-12T02:22:05;2.10;;;1.90;;
60653;SDS011;46476;53.614;10.048;2022-09-12T02:24:37;3.47;;;2.25;;
60653;SDS011;46476;53.614;10.048;2022-09-12T02:27:11;2.70;;;2.10;;
60653;SDS011;46476;53.614;10.048;2022-09-12T02:40:00;2.83;;;2.07;;
60653;SDS011;46476;53.614;10.048;2022-09-12T02:42:26;5.03;;;2.10;;
60653;SDS011;46476;53.614;10.048;2022-09-12T02:44:51;5.60;;;2.08;;
60653;SDS011;46476;53.614;10.048;2022-09-12T02:47:22;5.20;;;2.20;;
60653;SDS011;46476;53.614;10.048;2022-09-12T02:49:49;2.42;;;1.95;;
60653;SDS011;46476;53.614;10.048;2022-09-12T02:52:14;3.03;;;2.30;;
60653;SDS011;46476;53.614;10.048;2022-09-12T02:54:40;2.53;;;2.30;;
60653;SDS011;46476;53.614;10.048;2022-09-12T02:57:19;2.03;;;1.83;;
60653;SDS011;46476;53.614;10.048;2022-09-12T02:59:46;2.45;;;2.25;;
60653;SDS011;46476;53.614;10.048;2022-09-12T03:05:12;3.83;;;2.28;;
60653;SDS011;46476;53.614;10.048;2022-09-12T03:13:36;2.55;;;2.30;;
60653;SDS011;46476;53.614;10.048;2022-09-12T03:16:16;2.97;;;2.60;;
60653;SDS011;46476;53.614;10.048;2022-09-12T03:27:03;2.45;;;2.25;;
60653;SDS011;46476;53.614;10.048;2022-09-12T03:29:36;2.80;;;2.50;;
60653;SDS011;46476;53.614;10.048;2022-09-12T03:32:03;2.50;;;2.30;;
60653;SDS011;46476;53.614;10.048;2022-09-12T03:34:28;2.45;;;2.25;;
60653;SDS011;46476;53.614;10.048;2022-09-12T03:36:54;3.15;;;2.20;;
60653;SDS011;46476;53.614;10.048;2022-09-12T03:39:20;6.10;;;2.20;;
60653;SDS011;46476;53.614;10.048;2022-09-12T03:41:48;4.18;;;2.72;;
60653;SDS011;46476;53.614;10.048;2022-09-12T03:44:13;3.30;;;3.00;;
60653;SDS011;46476;53.614;10.048;2022-09-12T03:46:39;2.78;;;2.30;;
60653;SDS011;46476;53.614;10.048;2022-09-12T03:49:04;3.25;;;2.50;;
60653;SDS011;46476;53.614;10.048;2022-09-12T03:51:30;3.20;;;2.40;;
60653;SDS011;46476;53.614;10.048;2022-09-12T03:53:55;2.47;;;2.20;;
60653;SDS011;46476;53.614;10.048;2022-09-12T03:56:20;2.70;;;2.50;;
60653;SDS011;46476;53.614;10.048;2022-09-12T03:58:46;2.70;;;2.50;;
60653;SDS011;46476;53.614;10.048;2022-09-12T04:01:13;2.75;;;2.47;;
60653;SDS011;46476;53.614;10.048;2022-09-12T04:03:41;3.00;;;2.55;;
60653;SDS011;46476;53.614;10.048;2022-09-12T04:06:08;2.78;;;2.38;;
60653;SDS011;46476;53.614;10.048;2022-09-12T04:08:36;3.10;;;2.65;;
60653;SDS011;46476;53.614;10.048;2022-09-12T04:11:05;3.70;;;2.30;;
60653;SDS011;46476;53.614;10.048;2022-09-12T04:13:33;3.35;;;2.30;;
60653;SDS011;46476;53.614;10.048;2022-09-12T04:16:00;2.95;;;2.63;;
60653;SDS011;46476;53.614;10.048;2022-09-12T04:18:26;4.53;;;2.90;;
60653;SDS011;46476;53.614;10.048;2022-09-12T04:20:52;3.33;;;2.65;;
60653;SDS011;46476;53.614;10.048;2022-09-12T04:23:17;4.35;;;2.60;;
60653;SDS011;46476;53.614;10.048;2022-09-12T04:25:43;5.13;;;2.58;;
60653;SDS011;46476;53.614;10.048;2022-09-12T04:28:08;4.10;;;2.35;;
60653;SDS011;46476;53.614;10.048;2022-09-12T04:30:34;3.45;;;2.50;;
60653;SDS011;46476;53.614;10.048;2022-09-12T04:33:00;4.93;;;2.75;;
60653;SDS011;46476;53.614;10.048;2022-09-12T04:35:25;3.10;;;2.50;;
60653;SDS011;46476;53.614;10.048;2022-09-12T04:37:51;3.35;;;2.53;;
60653;SDS011;46476;53.614;10.048;2022-09-12T04:40:17;3.35;;;2.90;;
60653;SDS011;46476;53.614;10.048;2022-09-12T04:42:42;3.58;;;2.78;;
60653;SDS011;46476;53.614;10.048;2022-09-12T04:45:08;4.78;;;2.90;;
60653;SDS011;46476;53.614;10.048;2022-09-12T04:47:34;4.40;;;2.72;;
60653;SDS011;46476;53.614;10.048;2022-09-12T04:50:00;3.60;;;2.92;;
60653;SDS011;46476;53.614;10.048;2022-09-12T04:52:25;3.35;;;2.70;;
60653;SDS011;46476;53.614;10.048;2022-09-12T04:54:51;3.08;;;2.75;;
60653;SDS011;46476;53.614;10.048;2022-09-12T04:57:17;5.70;;;3.40;;
60653;SDS011;46476;53.614;10.048;2022-09-12T04:59:42;3.42;;;2.75;;
60653;SDS011;46476;53.614;10.048;2022-09-12T05:02:07;3.92;;;2.60;;
60653;SDS011;46476;53.614;10.048;2022-09-12T05:04:33;3.60;;;2.70;;
60653;SDS011;46476;53.614;10.048;2022-09-12T05:06:58;3.45;;;2.97;;
60653;SDS011;46476;53.614;10.048;2022-09-12T05:09:24;4.13;;;2.80;;
60653;SDS011;46476;53.614;10.048;2022-09-12T05:11:49;3.22;;;2.88;;
60653;SDS011;46476;53.614;10.048;2022-09-12T05:14:14;3.80;;;2.83;;
60653;SDS011;46476;53.614;10.048;2022-09-12T05:16:40;4.30;;;3.53;;
60653;SDS011;46476;53.614;10.048;2022-09-12T05:19:05;3.53;;;2.72;;
60653;SDS011;46476;53.614;10.048;2022-09-12T05:21:31;3.38;;;3.05;;
60653;SDS011;46476;53.614;10.048;2022-09-12T05:23:57;3.75;;;3.40;;
60653;SDS011;46476;53.614;10.048;2022-09-12T05:26:25;4.18;;;3.28;;
60653;SDS011;46476;53.614;10.048;2022-09-12T05:28:51;6.05;;;3.15;;
60653;SDS011;46476;53.614;10.048;2022-09-12T05:31:18;3.60;;;3.30;;
60653;SDS011;46476;53.614;10.048;2022-09-12T05:33:45;4.90;;;3.40;;
60653;SDS011;46476;53.614;10.048;2022-09-12T05:36:13;4.90;;;3.67;;
60653;SDS011;46476;53.614;10.048;2022-09-12T05:38:49;4.00;;;3.30;;
60653;SDS011;46476;53.614;10.048;2022-09-12T05:41:15;3.97;;;3.25;;
60653;SDS011;46476;53.614;10.048;2022-09-12T05:43:42;3.88;;;3.33;;
60653;SDS011;46476;53.614;10.048;2022-09-12T05:46:10;3.40;;;3.10;;
60653;SDS011;46476;53.614;10.048;2022-09-12T05:48:41;4.80;;;3.70;;
60653;SDS011;46476;53.614;10.048;2022-09-12T05:51:15;4.57;;;3.75;;
60653;SDS011;46476;53.614;10.048;2022-09-12T05:53:44;4.20;;;3.70;;
60653;SDS011;46476;53.614;10.048;2022-09-12T05:56:18;5.10;;;3.50;;
60653;SDS011;46476;53.614;10.048;2022-09-12T05:58:51;4.40;;;3.75;;
60653;SDS011;46476;53.614;10.048;2022-09-12T06:01:18;3.70;;;3.40;;
60653;SDS011;46476;53.614;10.048;2022-09-12T06:03:45;5.43;;;4.13;;
60653;SDS011;46476;53.614;10.048;2022-09-12T06:06:12;4.63;;;3.53;;
60653;SDS011;46476;53.614;10.048;2022-09-12T06:08:42;4.60;;;3.88;;
60653;SDS011;46476;53.614;10.048;2022-09-12T06:11:13;4.78;;;4.00;;
60653;SDS011;46476;53.614;10.048;2022-09-12T06:13:42;5.75;;;3.90;;
60653;SDS011;46476;53.614;10.048;2022-09-12T06:16:19;3.78;;;3.30;;
60653;SDS011;46476;53.614;10.048;2022-09-12T06:18:46;5.82;;;4.35;;
60653;SDS011;46476;53.614;10.048;2022-09-12T06:21:13;7.82;;;4.70;;
60653;SDS011;46476;53.614;10.048;2022-09-12T06:23:39;5.35;;;4.00;;
60653;SDS011;46476;53.614;10.048;2022-09-12T06:26:05;5.72;;;4.10;;
60653;SDS011;46476;53.614;10.048;2022-09-12T06:28:34;6.65;;;4.13;;
60653;SDS011;46476;53.614;10.048;2022-09-12T06:31:04;5.18;;;4.05;;
60653;SDS011;46476;53.614;10.048;2022-09-12T06:33:35;6.40;;;4.50;;
60653;SDS011;46476;53.614;10.048;2022-09-12T06:36:03;5.13;;;4.13;;
60653;SDS011;46476;53.614;10.048;2022-09-12T06:38:29;5.47;;;4.38;;
60653;SDS011;46476;53.614;10.048;2022-09-12T06:40:55;5.45;;;4.20;;
60653;SDS011;46476;53.614;10.048;2022-09-12T06:43:21;5.10;;;4.40;;
60653;SDS011;46476;53.614;10.048;2022-09-12T06:45:49;4.78;;;4.28;;
60653;SDS011;46476;53.614;10.048;2022-09-12T06:48:15;5.72;;;4.55;;
60653;SDS011;46476;53.614;10.048;2022-09-12T06:50:40;5.35;;;4.45;;
60653;SDS011;46476;53.614;10.048;2022-09-12T06:53:06;6.45;;;3.92;;
60653;SDS011;46476;53.614;10.048;2022-09-12T06:55:31;5.40;;;4.25;;
60653;SDS011;46476;53.614;10.048;2022-09-12T06:57:57;5.43;;;4.22;;
60653;SDS011;46476;53.614;10.048;2022-09-12T07:00:23;5.82;;;4.43;;
60653;SDS011;46476;53.614;10.048;2022-09-12T07:02:52;4.60;;;4.10;;
60653;SDS011;46476;53.614;10.048;2022-09-12T07:05:18;5.65;;;4.35;;
60653;SDS011;46476;53.614;10.048;2022-09-12T07:07:43;5.80;;;4.03;;
60653;SDS011;46476;53.614;10.048;2022-09-12T07:10:08;5.10;;;4.47;;
60653;SDS011;46476;53.614;10.048;2022-09-12T07:12:35;6.15;;;4.07;;
60653;SDS011;46476;53.614;10.048;2022-09-12T07:15:01;5.03;;;4.03;;
60653;SDS011;46476;53.614;10.048;2022-09-12T07:17:26;4.72;;;4.10;;
60653;SDS011;46476;53.614;10.048;2022-09-12T07:19:51;7.10;;;4.63;;
60653;SDS011;46476;53.614;10.048;2022-09-12T07:22:17;6.28;;;4.20;;
60653;SDS011;46476;53.614;10.048;2022-09-12T07:24:42;5.78;;;4.25;;
60653;SDS011;46476;53.614;10.048;2022-09-12T07:27:09;5.82;;;4.30;;
60653;SDS011;46476;53.614;10.048;2022-09-12T07:29:35;5.63;;;3.97;;
60653;SDS011;46476;53.614;10.048;2022-09-12T07:32:00;5.35;;;4.22;;
60653;SDS011;46476;53.614;10.048;2022-09-12T07:34:26;5.10;;;4.18;;
60653;SDS011;46476;53.614;10.048;2022-09-12T07:36:51;6.30;;;4.10;;
60653;SDS011;46476;53.614;10.048;2022-09-12T07:39:16;4.50;;;3.50;;
60653;SDS011;46476;53.614;10.048;2022-09-12T07:41:42;4.80;;;3.60;;
60653;SDS011;46476;53.614;10.048;2022-09-12T07:44:07;4.55;;;3.45;;
60653;SDS011;46476;53.614;10.048;2022-09-12T07:46:33;4.38;;;3.58;;
60653;SDS011;46476;53.614;10.048;2022-09-12T07:48:59;5.80;;;3.35;;
60653;SDS011;46476;53.614;10.048;2022-09-12T07:51:25;5.00;;;3.72;;
60653;SDS011;46476;53.614;10.048;2022-09-12T07:53:53;3.95;;;3.05;;
60653;SDS011;46476;53.614;10.048;2022-09-12T07:56:19;6.13;;;3.30;;
60653;SDS011;46476;53.614;10.048;2022-09-12T07:58:45;4.10;;;3.50;;
60653;SDS011;46476;53.614;10.048;2022-09-12T08:01:12;4.18;;;3.38;;
60653;SDS011;46476;53.614;10.048;2022-09-12T08:03:40;4.18;;;3.20;;
60653;SDS011;46476;53.614;10.048;2022-09-12T08:06:07;3.83;;;3.42;;
60653;SDS011;46476;53.614;10.048;2022-09-12T08:08:40;6.78;;;3.50;;
60653;SDS011;46476;53.614;10.048;2022-09-12T08:11:07;5.13;;;3.10;;
60653;SDS011;46476;53.614;10.048;2022-09-12T08:13:35;3.22;;;2.40;;
60653;SDS011;46476;53.614;10.048;2022-09-12T08:16:03;4.38;;;2.63;;
60653;SDS011;46476;53.614;10.048;2022-09-12T08:18:30;3.13;;;2.50;;
60653;SDS011;46476;53.614;10.048;2022-09-12T08:20:57;2.70;;;2.33;;
60653;SDS011;46476;53.614;10.048;2022-09-12T08:23:24;2.97;;;2.60;;
60653;SDS011;46476;53.614;10.048;2022-09-12T08:25:50;4.93;;;2.53;;
60653;SDS011;46476;53.614;10.048;2022-09-12T08:28:16;4.65;;;2.45;;
60653;SDS011;46476;53.614;10.048;2022-09-12T08:30:41;7.82;;;2.42;;
60653;SDS011;46476;53.614;10.048;2022-09-12T08:33:06;3.28;;;2.22;;
60653;SDS011;46476;53.614;10.048;2022-09-12T08:35:32;3.40;;;2.30;;
60653;SDS011;46476;53.614;10.048;2022-09-12T08:37:57;2.63;;;2.13;;
60653;SDS011;46476;53.614;10.048;2022-09-12T08:40:23;2.55;;;2.03;;
60653;SDS011;46476;53.614;10.048;2022-09-12T08:43:06;2.92;;;2.00;;
60653;SDS011;46476;53.614;10.048;2022-09-12T08:45:53;2.85;;;1.52;;
60653;SDS011;46476;53.614;10.048;2022-09-12T08:48:26;3.63;;;2.00;;
60653;SDS011;46476;53.614;10.048;2022-09-12T08:50:51;1.80;;;1.70;;
60653;SDS011;46476;53.614;10.048;2022-09-12T08:53:18;3.80;;;1.50;;
60653;SDS011;46476;53.614;10.048;2022-09-12T08:55:57;2.45;;;2.25;;
60653;SDS011;46476;53.614;10.048;2022-09-12T08:58:24;2.20;;;1.58;;
60653;SDS011;46476;53.614;10.048;2022-09-12T09:00:57;3.80;;;2.03;;
60653;SDS011;46476;53.614;10.048;2022-09-12T09:06:07;1.90;;;1.60;;
60653;SDS011;46476;53.614;10.048;2022-09-12T09:11:59;1.35;;;1.20;;
60653;SDS011;46476;53.614;10.048;2022-09-12T09:14:46;1.70;;;1.60;;
60653;SDS011;46476;53.614;10.048;2022-09-12T09:17:31;1.52;;;1.30;;
60653;SDS011;46476;53.614;10.048;2022-09-12T09:23:13;1.88;;;1.67;;
60653;SDS011;46476;53.614;10.048;2022-09-12T09:28:20;2.20;;;1.42;;
60653;SDS011;46476;53.614;10.048;2022-09-12T09:30:49;2.65;;;1.67;;
60653;SDS011;46476;53.614;10.048;2022-09-12T09:33:22;2.47;;;1.75;;
60653;SDS011;46476;53.614;10.048;2022-09-12T09:44:13;2.10;;;1.38;;
60653;SDS011;46476;53.614;10.048;2022-09-12T09:46:38;1.45;;;1.35;;
60653;SDS011;46476;53.614;10.048;2022-09-12T09:49:04;2.75;;;1.80;;
60653;SDS011;46476;53.614;10.048;2022-09-12T09:51:33;1.73;;;1.30;;
60653;SDS011;46476;53.614;10.048;2022-09-12T09:54:12;1.80;;;1.15;;
60653;SDS011;46476;53.614;10.048;2022-09-12T09:56:43;2.47;;;1.67;;
60653;SDS011;46476;53.614;10.048;2022-09-12T10:01:36;2.47;;;1.90;;
60653;SDS011;46476;53.614;10.048;2022-09-12T10:04:08;1.80;;;1.02;;
60653;SDS011;46476;53.614;10.048;2022-09-12T10:06:43;1.48;;;1.20;;
60653;SDS011;46476;53.614;10.048;2022-09-12T10:11:51;1.20;;;1.10;;
60653;SDS011;46476;53.614;10.048;2022-09-12T10:16:59;1.58;;;1.00;;
60653;SDS011;46476;53.614;10.048;2022-09-12T10:19:35;3.10;;;1.30;;
60653;SDS011;46476;53.614;10.048;2022-09-12T10:22:02;1.75;;;1.13;;
60653;SDS011;46476;53.614;10.048;2022-09-12T10:24:31;3.75;;;1.23;;
60653;SDS011;46476;53.614;10.048;2022-09-12T10:27:08;1.35;;;0.90;;
60653;SDS011;46476;53.614;10.048;2022-09-12T10:29:42;1.65;;;1.00;;
60653;SDS011;46476;53.614;10.048;2022-09-12T10:32:12;1.45;;;1.10;;
60653;SDS011;46476;53.614;10.048;2022-09-12T10:34:53;1.67;;;1.30;;
60653;SDS011;46476;53.614;10.048;2022-09-12T10:37:28;1.30;;;1.10;;
60653;SDS011;46476;53.614;10.048;2022-09-12T10:40:03;1.02;;;0.98;;
60653;SDS011;46476;53.614;10.048;2022-09-12T10:42:41;1.20;;;1.10;;
60653;SDS011;46476;53.614;10.048;2022-09-12T10:45:19;2.65;;;0.90;;
60653;SDS011;46476;53.614;10.048;2022-09-12T10:47:54;1.60;;;1.17;;
60653;SDS011;46476;53.614;10.048;2022-09-12T10:50:26;1.10;;;0.90;;
60653;SDS011;46476;53.614;10.048;2022-09-12T10:53:20;0.93;;;0.60;;
60653;SDS011;46476;53.614;10.048;2022-09-12T11:01:06;1.42;;;1.10;;
60653;SDS011;46476;53.614;10.048;2022-09-12T11:04:01;2.97;;;1.13;;
60653;SDS011;46476;53.614;10.048;2022-09-12T11:09:37;1.15;;;0.93;;
60653;SDS011;46476;53.614;10.048;2022-09-12T11:12:14;1.33;;;1.00;;
60653;SDS011;46476;53.614;10.048;2022-09-12T11:25:39;1.23;;;0.90;;
60653;SDS011;46476;53.614;10.048;2022-09-12T11:33:57;1.05;;;0.95;;
60653;SDS011;46476;53.614;10.048;2022-09-12T11:36:36;1.30;;;0.95;;
60653;SDS011;46476;53.614;10.048;2022-09-12T11:39:14;0.85;;;0.80;;
60653;SDS011;46476;53.614;10.048;2022-09-12T11:41:41;1.80;;;1.10;;
60653;SDS011;46476;53.614;10.048;2022-09-12T11:46:44;0.70;;;0.70;;
60653;SDS011;46476;53.614;10.048;2022-09-12T12:00:02;1.00;;;0.77;;
60653;SDS011;46476;53.614;10.048;2022-09-12T12:05:48;1.58;;;0.98;;
60653;SDS011;46476;53.614;10.048;2022-09-12T12:08:18;1.13;;;0.85;;
60653;SDS011;46476;53.614;10.048;2022-09-12T12:10:53;3.15;;;1.08;;
60653;SDS011;46476;53.614;10.048;2022-09-12T12:16:30;1.30;;;0.85;;
60653;SDS011;46476;53.614;10.048;2022-09-12T12:18:59;1.27;;;0.90;;
60653;SDS011;46476;53.614;10.048;2022-09-12T12:21:40;1.55;;;0.90;;
60653;SDS011;46476;53.614;10.048;2022-09-12T12:29:03;0.73;;;0.70;;
60653;SDS011;46476;53.614;10.048;2022-09-12T12:32:17;2.08;;;0.82;;
60653;SDS011;46476;53.614;10.048;2022-09-12T12:34:32;1.75;;;0.90;;
60653;SDS011;46476;53.614;10.048;2022-09-12T12:42:08;1.75;;;1.00;;
60653;SDS011;46476;53.614;10.048;2022-09-12T12:49:53;1.33;;;0.85;;
60653;SDS011;46476;53.614;10.048;2022-09-12T12:52:22;2.63;;;0.82;;
60653;SDS011;46476;53.614;10.048;2022-09-12T12:54:51;1.30;;;0.82;;
60653;SDS011;46476;53.614;10.048;2022-09-12T12:59:47;1.02;;;0.90;;
60653;SDS011;46476;53.614;10.048;2022-09-12T13:02:23;1.65;;;0.80;;
60653;SDS011;46476;53.614;10.048;2022-09-12T13:04:53;1.02;;;0.95;;
60653;SDS011;46476;53.614;10.048;2022-09-12T13:07:21;1.92;;;0.90;;
60653;SDS011;46476;53.614;10.048;2022-09-12T13:09:51;1.67;;;0.68;;
60653;SDS011;46476;53.614;10.048;2022-09-12T13:12:19;1.00;;;0.88;;
60653;SDS011;46476;53.614;10.048;2022-09-12T13:14:57;2.20;;;0.80;;
60653;SDS011;46476;53.614;10.048;2022-09-12T13:19:50;1.08;;;0.85;;
60653;SDS011;46476;53.614;10.048;2022-09-12T13:22:21;1.05;;;0.95;;
60653;SDS011;46476;53.614;10.048;2022-09-12T13:24:48;1.85;;;1.00;;
60653;SDS011;46476;53.614;10.048;2022-09-12T13:27:25;1.17;;;1.08;;
60653;SDS011;46476;53.614;10.048;2022-09-12T13:32:53;1.23;;;1.10;;
60653;SDS011;46476;53.614;10.048;2022-09-12T13:35:30;1.13;;;1.02;;
60653;SDS011;46476;53.614;10.048;2022-09-12T13:43:07;0.80;;;0.80;;
60653;SDS011;46476;53.614;10.048;2022-09-12T13:45:36;1.10;;;1.00;;
60653;SDS011;46476;53.614;10.048;2022-09-12T13:48:03;1.55;;;1.20;;
60653;SDS011;46476;53.614;10.048;2022-09-12T13:53:21;2.45;;;1.20;;
60653;SDS011;46476;53.614;10.048;2022-09-12T13:55:50;0.90;;;0.90;;
60653;SDS011;46476;53.614;10.048;2022-09-12T13:58:23;1.38;;;0.98;;
60653;SDS011;46476;53.614;10.048;2022-09-12T14:01:04;3.20;;;1.00;;
60653;SDS011;46476;53.614;10.048;2022-09-12T14:03:31;1.30;;;1.10;;
60653;SDS011;46476;53.614;10.048;2022-09-12T14:06:16;1.30;;;1.10;;
60653;SDS011;46476;53.614;10.048;2022-09-12T14:08:43;1.33;;;1.00;;
60653;SDS011;46476;53.614;10.048;2022-09-12T14:11:11;1.00;;;0.80;;
60653;SDS011;46476;53.614;10.048;2022-09-12T14:13:45;1.27;;;1.10;;
60653;SDS011;46476;53.614;10.048;2022-09-12T14:16:10;0.90;;;0.90;;
60653;SDS011;46476;53.614;10.048;2022-09-12T14:18:36;1.13;;;0.90;;
60653;SDS011;46476;53.614;10.048;2022-09-12T14:23:56;1.30;;;0.95;;
60653;SDS011;46476;53.614;10.048;2022-09-12T14:26:23;1.17;;;1.00;;
60653;SDS011;46476;53.614;10.048;2022-09-12T14:28:51;0.93;;;0.75;;
60653;SDS011;46476;53.614;10.048;2022-09-12T14:39:00;1.40;;;0.95;;
60653;SDS011;46476;53.614;10.048;2022-09-12T14:41:37;1.30;;;1.20;;
60653;SDS011;46476;53.614;10.048;2022-09-12T14:44:06;2.03;;;1.15;;
60653;SDS011;46476;53.614;10.048;2022-09-12T14:46:39;1.25;;;1.10;;
60653;SDS011;46476;53.614;10.048;2022-09-12T14:49:13;1.75;;;1.15;;
60653;SDS011;46476;53.614;10.048;2022-09-12T14:56:53;2.10;;;1.20;;
60653;SDS011;46476;53.614;10.048;2022-09-12T15:09:56;3.22;;;1.65;;
60653;SDS011;46476;53.614;10.048;2022-09-12T15:12:23;1.80;;;1.52;;
60653;SDS011;46476;53.614;10.048;2022-09-12T15:14:48;1.98;;;1.60;;
60653;SDS011;46476;53.614;10.048;2022-09-12T15:17:13;1.80;;;1.10;;
60653;SDS011;46476;53.614;10.048;2022-09-12T15:19:39;1.27;;;1.00;;
60653;SDS011;46476;53.614;10.048;2022-09-12T15:22:04;1.35;;;1.25;;
60653;SDS011;46476;53.614;10.048;2022-09-12T15:24:29;1.70;;;1.23;;
60653;SDS011;46476;53.614;10.048;2022-09-12T15:26:55;1.65;;;1.55;;
60653;SDS011;46476;53.614;10.048;2022-09-12T15:29:20;2.20;;;1.60;;
60653;SDS011;46476;53.614;10.048;2022-09-12T15:31:46;1.67;;;1.48;;
60653;SDS011;46476;53.614;10.048;2022-09-12T15:34:14;1.95;;;1.25;;
60653;SDS011;46476;53.614;10.048;2022-09-12T15:36:40;3.45;;;1.30;;
60653;SDS011;46476;53.614;10.048;2022-09-12T15:39:05;2.42;;;1.30;;
60653;SDS011;46476;53.614;10.048;2022-09-12T15:41:34;1.92;;;1.70;;
60653;SDS011;46476;53.614;10.048;2022-09-12T15:44:04;2.40;;;1.10;;
60653;SDS011;46476;53.614;10.048;2022-09-12T15:46:32;1.80;;;1.20;;
60653;SDS011;46476;53.614;10.048;2022-09-12T15:48:57;1.60;;;1.05;;
60653;SDS011;46476;53.614;10.048;2022-09-12T15:51:23;1.25;;;1.15;;
60653;SDS011;46476;53.614;10.048;2022-09-12T15:53:49;1.20;;;1.10;;
60653;SDS011;46476;53.614;10.048;2022-09-12T15:56:16;2.58;;;1.17;;
60653;SDS011;46476;53.614;10.048;2022-09-12T15:58:42;2.38;;;1.50;;
60653;SDS011;46476;53.614;10.048;2022-09-12T16:01:11;1.83;;;1.23;;
60653;SDS011;46476;53.614;10.048;2022-09-12T16:03:38;1.48;;;1.38;;
60653;SDS011;46476;53.614;10.048;2022-09-12T16:06:04;2.17;;;1.50;;
60653;SDS011;46476;53.614;10.048;2022-09-12T16:08:31;1.70;;;1.30;;
60653;SDS011;46476;53.614;10.048;2022-09-12T16:10:58;1.30;;;1.20;;
60653;SDS011;46476;53.614;10.048;2022-09-12T16:13:26;1.67;;;1.35;;
60653;SDS011;46476;53.614;10.048;2022-09-12T16:15:54;2.13;;;1.27;;
60653;SDS011;46476;53.614;10.048;2022-09-12T16:18:21;2.08;;;1.35;;
60653;SDS011;46476;53.614;10.048;2022-09-12T16:20:46;1.60;;;1.50;;
60653;SDS011;46476;53.614;10.048;2022-09-12T16:23:16;1.90;;;1.70;;
60653;SDS011;46476;53.614;10.048;2022-09-12T16:25:41;1.92;;;1.63;;
60653;SDS011;46476;53.614;10.048;2022-09-12T16:28:07;2.15;;;1.60;;
60653;SDS011;46476;53.614;10.048;2022-09-12T16:30:33;2.40;;;1.95;;
60653;SDS011;46476;53.614;10.048;2022-09-12T16:32:58;2.65;;;1.63;;
60653;SDS011;46476;53.614;10.048;2022-09-12T16:35:24;1.80;;;1.60;;
60653;SDS011;46476;53.614;10.048;2022-09-12T16:37:49;3.53;;;1.77;;
60653;SDS011;46476;53.614;10.048;2022-09-12T16:40:15;2.78;;;1.80;;
60653;SDS011;46476;53.614;10.048;2022-09-12T16:42:41;2.05;;;1.52;;
60653;SDS011;46476;53.614;10.048;2022-09-12T16:45:07;1.77;;;1.63;;
60653;SDS011;46476;53.614;10.048;2022-09-12T16:47:33;1.83;;;1.73;;
60653;SDS011;46476;53.614;10.048;2022-09-12T16:49:58;2.22;;;1.65;;
60653;SDS011;46476;53.614;10.048;2022-09-12T16:52:24;1.70;;;1.60;;
60653;SDS011;46476;53.614;10.048;2022-09-12T16:54:49;3.45;;;1.98;;
60653;SDS011;46476;53.614;10.048;2022-09-12T16:57:15;3.17;;;1.90;;
60653;SDS011;46476;53.614;10.048;2022-09-12T16:59:40;1.63;;;1.52;;
60653;SDS011;46476;53.614;10.048;2022-09-12T17:02:06;1.50;;;1.40;;
60653;SDS011;46476;53.614;10.048;2022-09-12T17:04:35;2.42;;;1.77;;
60653;SDS011;46476;53.614;10.048;2022-09-12T17:07:00;2.03;;;1.80;;
60653;SDS011;46476;53.614;10.048;2022-09-12T17:09:25;3.35;;;1.73;;
60653;SDS011;46476;53.614;10.048;2022-09-12T17:11:52;3.50;;;2.25;;
60653;SDS011;46476;53.614;10.048;2022-09-12T17:14:17;2.63;;;2.40;;
60653;SDS011;46476;53.614;10.048;2022-09-12T17:16:44;2.47;;;2.08;;
60653;SDS011;46476;53.614;10.048;2022-09-12T17:19:14;3.55;;;2.20;;
60653;SDS011;46476;53.614;10.048;2022-09-12T17:21:43;2.88;;;2.13;;
60653;SDS011;46476;53.614;10.048;2022-09-12T17:24:08;3.03;;;2.53;;
60653;SDS011;46476;53.614;10.048;2022-09-12T17:26:34;2.58;;;2.10;;
60653;SDS011;46476;53.614;10.048;2022-09-12T17:28:59;2.92;;;2.13;;
60653;SDS011;46476;53.614;10.048;2022-09-12T17:31:26;2.70;;;2.28;;
60653;SDS011;46476;53.614;10.048;2022-09-12T17:33:56;4.55;;;2.35;;
60653;SDS011;46476;53.614;10.048;2022-09-12T17:36:22;2.10;;;1.90;;
60653;SDS011;46476;53.614;10.048;2022-09-12T17:38:48;4.47;;;2.40;;
60653;SDS011;46476;53.614;10.048;2022-09-12T17:41:16;3.15;;;2.40;;